Time;durP1;ratioP1;P1;durP2;ratioP2;P2;SDS_P1;SDS_P2;PMS_P1;PMS_P2;Temp;Humidity;BMP_temperature;BMP_pressure;BME280_temperature;BME280_humidity;BME280_pressure;Samples;Min_cycle;Max_cycle;Signal;HPM_P1;HPM_P2
2022/12/18 00:02:03;;;;;;;33.60;20.17;;;-6.80;99.90;;;;;;5089048;28;20198;-80
2022/12/18 00:04:30;;;;;;;32.43;19.40;;;-7.10;99.90;;;;;;5096242;28;20201;-80
2022/12/18 00:06:57;;;;;;;33.67;19.43;;;-7.00;99.90;;;;;;5094241;28;20220;-80
2022/12/18 00:09:24;;;;;;;27.93;17.53;;;-7.00;99.90;;;;;;5101708;28;20198;-80
2022/12/18 00:11:50;;;;;;;33.20;18.27;;;-7.00;99.90;;;;;;5095441;28;20220;-80
2022/12/18 00:14:18;;;;;;;30.70;17.53;;;-7.00;99.90;;;;;;5093952;28;20204;-80
2022/12/18 00:16:46;;;;;;;28.87;17.80;;;-7.00;99.90;;;;;;5097765;28;20213;-80
2022/12/18 00:19:14;;;;;;;29.57;17.47;;;-7.00;99.90;;;;;;5084101;28;20206;-81
2022/12/18 00:21:41;;;;;;;31.80;17.47;;;-7.10;99.90;;;;;;5095486;28;20186;-81
2022/12/18 00:24:09;;;;;;;28.23;17.77;;;-6.90;99.90;;;;;;5079758;28;20493;-81
2022/12/18 00:26:38;;;;;;;30.87;17.87;;;-6.80;99.90;;;;;;5095284;28;20212;-80
2022/12/18 00:29:07;;;;;;;28.10;16.63;;;-6.90;99.90;;;;;;5093004;28;20606;-80
2022/12/18 00:31:35;;;;;;;29.33;15.90;;;-7.10;99.90;;;;;;5092342;28;20686;-80
2022/12/18 00:34:03;;;;;;;26.27;15.07;;;-7.20;99.90;;;;;;5092597;28;20202;-81
2022/12/18 00:36:31;;;;;;;24.70;14.93;;;-7.30;99.90;;;;;;5092409;28;20206;-80
2022/12/18 00:39:00;;;;;;;26.47;15.73;;;-7.40;99.90;;;;;;5085043;28;20209;-80
2022/12/18 00:44:14;;;;;;;27.97;15.30;;;-7.30;99.90;;;;;;5094190;28;20568;-80
2022/12/18 00:46:42;;;;;;;25.70;15.13;;;-7.40;99.90;;;;;;5084626;28;20190;-80
2022/12/18 00:49:12;;;;;;;26.07;15.17;;;-7.40;99.90;;;;;;5090748;28;20212;-80
2022/12/18 00:51:39;;;;;;;27.50;14.47;;;-7.50;99.90;;;;;;5088334;28;20574;-80
2022/12/18 00:54:06;;;;;;;29.60;15.37;;;-7.50;99.90;;;;;;5089351;28;20205;-80
2022/12/18 00:56:32;;;;;;;25.90;15.20;;;-7.50;99.90;;;;;;5092378;28;20202;-80
2022/12/18 00:58:59;;;;;;;25.10;14.97;;;-7.50;99.90;;;;;;5087195;28;20202;-80
2022/12/18 01:01:26;;;;;;;24.70;13.70;;;-7.50;99.90;;;;;;5091622;28;20416;-81
2022/12/18 01:03:57;;;;;;;25.17;13.33;;;-7.40;99.90;;;;;;5094581;28;20287;-81
2022/12/18 01:06:23;;;;;;;22.40;12.93;;;-7.50;99.90;;;;;;5094827;28;20204;-80
2022/12/18 01:08:50;;;;;;;23.67;14.27;;;-7.70;99.90;;;;;;5094862;28;20202;-81
2022/12/18 01:11:19;;;;;;;23.47;14.20;;;-7.80;99.90;;;;;;5089519;28;20230;-80
2022/12/18 01:13:46;;;;;;;27.63;15.03;;;-8.00;99.90;;;;;;5086374;28;20202;-81
2022/12/18 01:16:14;;;;;;;29.60;15.97;;;-8.10;99.90;;;;;;5082056;28;20202;-80
2022/12/18 01:18:41;;;;;;;27.20;15.63;;;-7.90;99.90;;;;;;5094802;28;20613;-81
2022/12/18 01:21:12;;;;;;;26.90;14.33;;;-7.90;99.90;;;;;;5088546;28;20200;-80
2022/12/18 01:23:38;;;;;;;30.70;16.37;;;-7.70;99.90;;;;;;5090454;28;20197;-80
2022/12/18 01:26:07;;;;;;;28.13;16.77;;;-7.90;99.90;;;;;;5092335;28;20628;-80
2022/12/18 01:28:33;;;;;;;27.67;15.60;;;-7.80;99.90;;;;;;5082272;28;20232;-80
2022/12/18 01:31:14;;;;;;;27.27;15.63;;;-7.80;99.90;;;;;;5091577;28;20200;-80
2022/12/18 01:33:41;;;;;;;25.90;13.80;;;-7.80;99.90;;;;;;5088119;28;20243;-80
2022/12/18 01:36:14;;;;;;;24.87;14.47;;;-7.70;99.90;;;;;;5088637;28;20923;-80
2022/12/18 01:38:41;;;;;;;28.50;15.10;;;-7.60;99.90;;;;;;5087423;28;20232;-81
2022/12/18 01:41:10;;;;;;;26.20;14.43;;;-7.60;99.90;;;;;;5090981;28;20216;-80
2022/12/18 01:43:45;;;;;;;26.33;14.13;;;-7.70;99.90;;;;;;5093757;28;20206;-81
2022/12/18 01:46:12;;;;;;;22.30;13.17;;;-7.80;99.90;;;;;;5094605;28;20211;-81
2022/12/18 01:48:40;;;;;;;30.30;15.07;;;-7.70;99.90;;;;;;5093064;28;20221;-81
2022/12/18 01:51:11;;;;;;;25.70;14.17;;;-7.70;99.90;;;;;;5088039;28;20222;-81
2022/12/18 01:53:42;;;;;;;24.63;14.93;;;-7.70;99.90;;;;;;5091280;28;20611;-81
2022/12/18 01:56:10;;;;;;;27.47;14.70;;;-7.50;99.90;;;;;;5081735;28;20662;-81
2022/12/18 01:58:44;;;;;;;25.63;15.10;;;-7.40;99.90;;;;;;5094293;28;20727;-81
2022/12/18 02:01:11;;;;;;;26.30;15.07;;;-7.60;99.90;;;;;;5088262;28;20204;-81
2022/12/18 02:03:38;;;;;;;26.07;14.57;;;-7.50;99.90;;;;;;5085964;28;20554;-80
2022/12/18 02:06:13;;;;;;;23.93;13.53;;;-7.50;99.90;;;;;;5088568;28;20204;-80
2022/12/18 02:08:48;;;;;;;22.67;14.03;;;-7.50;99.90;;;;;;5089204;28;20221;-81
2022/12/18 02:11:22;;;;;;;21.47;12.10;;;-7.40;99.90;;;;;;5089448;28;20225;-80
2022/12/18 02:13:55;;;;;;;20.13;11.87;;;-7.40;99.90;;;;;;5091716;28;20578;-80
2022/12/18 02:16:27;;;;;;;23.83;13.37;;;-7.30;99.90;;;;;;5094466;28;20212;-80
2022/12/18 02:18:58;;;;;;;22.30;12.10;;;-7.20;99.90;;;;;;5096192;28;20203;-81
2022/12/18 02:21:35;;;;;;;22.87;12.00;;;-7.20;99.90;;;;;;5086650;28;20207;-80
2022/12/18 02:24:15;;;;;;;22.43;12.43;;;-7.30;99.90;;;;;;5091931;28;20212;-81
2022/12/18 02:26:47;;;;;;;21.97;13.00;;;-7.20;99.90;;;;;;5095575;28;20193;-81
2022/12/18 02:29:17;;;;;;;21.27;11.87;;;-7.20;99.90;;;;;;5095779;28;20198;-81
2022/12/18 02:31:50;;;;;;;22.27;11.83;;;-7.10;99.90;;;;;;5093624;28;20209;-81
2022/12/18 02:34:19;;;;;;;20.00;11.10;;;-7.10;99.90;;;;;;5084345;28;20685;-80
2022/12/18 02:36:47;;;;;;;20.67;11.87;;;-7.00;99.90;;;;;;5086262;28;20228;-80
2022/12/18 02:39:16;;;;;;;19.67;11.17;;;-6.90;99.90;;;;;;5089197;28;20201;-81
2022/12/18 02:41:44;;;;;;;20.17;10.83;;;-6.90;99.90;;;;;;5094008;28;20198;-82
2022/12/18 02:44:13;;;;;;;21.03;11.47;;;-7.10;99.90;;;;;;5087415;28;20202;-81
2022/12/18 02:46:43;;;;;;;22.67;11.03;;;-7.40;99.90;;;;;;5091824;28;20204;-80
2022/12/18 02:49:21;;;;;;;21.80;10.73;;;-7.30;99.90;;;;;;5095942;28;20204;-81
2022/12/18 02:51:53;;;;;;;19.83;11.00;;;-7.10;99.90;;;;;;5087933;28;20218;-80
2022/12/18 02:54:32;;;;;;;21.27;11.43;;;-7.00;99.90;;;;;;5093611;28;20224;-81
2022/12/18 02:57:07;;;;;;;20.50;11.87;;;-6.80;99.90;;;;;;5078767;28;20217;-80
2022/12/18 02:59:42;;;;;;;21.07;11.90;;;-7.00;99.90;;;;;;5091612;28;20201;-80
2022/12/18 03:02:17;;;;;;;18.53;10.40;;;-7.10;99.90;;;;;;5091483;28;20193;-81
2022/12/18 03:04:48;;;;;;;19.27;10.90;;;-7.40;99.90;;;;;;5080610;28;20569;-80
2022/12/18 03:07:20;;;;;;;18.30;10.57;;;-7.00;99.90;;;;;;5087725;28;20224;-81
2022/12/18 03:09:51;;;;;;;20.20;11.10;;;-7.00;99.90;;;;;;5092402;28;20203;-81
2022/12/18 03:12:23;;;;;;;21.20;11.00;;;-7.00;99.90;;;;;;5087730;28;20219;-80
2022/12/18 03:14:54;;;;;;;19.60;10.50;;;-6.90;99.90;;;;;;5083961;28;20206;-80
2022/12/18 03:17:25;;;;;;;20.77;11.50;;;-6.50;99.90;;;;;;5089131;28;20224;-80
2022/12/18 03:19:54;;;;;;;20.00;11.00;;;-6.40;99.90;;;;;;5089684;28;20211;-80
2022/12/18 03:22:23;;;;;;;18.03;10.37;;;-6.50;99.90;;;;;;5083701;28;20198;-80
2022/12/18 03:24:50;;;;;;;20.63;10.83;;;-6.70;99.90;;;;;;5088564;28;20197;-80
2022/12/18 03:27:22;;;;;;;20.67;11.97;;;-6.70;99.90;;;;;;5087172;28;20597;-81
2022/12/18 03:29:53;;;;;;;20.50;11.40;;;-6.70;99.90;;;;;;5090827;28;20194;-80
2022/12/18 03:32:26;;;;;;;20.47;11.77;;;-6.70;99.90;;;;;;5093697;28;20217;-81
2022/12/18 03:34:58;;;;;;;20.90;10.57;;;-6.80;99.90;;;;;;5095209;28;20573;-80
2022/12/18 03:37:25;;;;;;;18.80;10.60;;;-6.90;99.90;;;;;;5088884;28;20221;-80
2022/12/18 03:39:51;;;;;;;20.43;10.33;;;-6.90;99.90;;;;;;5084478;28;20194;-80
2022/12/18 03:42:26;;;;;;;20.37;10.30;;;-6.50;99.90;;;;;;5095142;28;20229;-80
2022/12/18 03:45:01;;;;;;;18.87;10.10;;;-6.20;99.90;;;;;;5081768;28;20205;-80
2022/12/18 03:47:33;;;;;;;17.60;8.97;;;-6.50;99.90;;;;;;5086765;28;20240;-80
2022/12/18 03:50:09;;;;;;;17.50;8.87;;;-6.60;99.90;;;;;;5094098;28;20668;-80
2022/12/18 03:52:40;;;;;;;16.37;8.80;;;-6.60;99.90;;;;;;5086676;28;20226;-80
2022/12/18 03:55:09;;;;;;;19.50;9.97;;;-6.60;99.90;;;;;;5091222;28;20284;-81
2022/12/18 03:57:39;;;;;;;16.60;9.73;;;-6.50;99.90;;;;;;5094461;28;20237;-80
2022/12/18 04:00:09;;;;;;;17.83;9.77;;;-6.60;99.90;;;;;;5086239;28;20198;-80
2022/12/18 04:02:39;;;;;;;19.20;9.73;;;-6.60;99.90;;;;;;5086788;28;20564;-80
2022/12/18 04:05:08;;;;;;;19.37;8.80;;;-6.50;99.90;;;;;;5092512;28;20565;-80
2022/12/18 04:07:36;;;;;;;18.30;11.10;;;-6.60;99.90;;;;;;5092707;28;20226;-80
2022/12/18 04:10:04;;;;;;;22.07;11.63;;;-6.50;99.90;;;;;;5085484;28;20202;-80
2022/12/18 04:12:31;;;;;;;19.60;11.10;;;-6.00;99.90;;;;;;5093953;28;20767;-80
2022/12/18 04:14:59;;;;;;;20.90;10.70;;;-6.00;99.90;;;;;;5087931;28;20209;-80
2022/12/18 04:17:26;;;;;;;18.87;10.10;;;-6.10;99.90;;;;;;5089398;28;20217;-80
2022/12/18 04:19:53;;;;;;;17.20;9.57;;;-6.20;99.90;;;;;;5095531;28;20201;-80
2022/12/18 04:22:19;;;;;;;19.63;9.40;;;-6.30;99.90;;;;;;5093730;28;20210;-80
2022/12/18 04:24:46;;;;;;;16.00;8.50;;;-5.50;99.90;;;;;;5087467;28;20190;-80
2022/12/18 04:27:13;;;;;;;20.33;9.90;;;-5.80;99.90;;;;;;5088507;28;20214;-80
2022/12/18 04:29:40;;;;;;;16.10;8.13;;;-5.90;99.90;;;;;;5082947;28;20199;-80
2022/12/18 04:32:08;;;;;;;16.77;8.60;;;-5.00;99.90;;;;;;5087487;28;20254;-80
2022/12/18 04:34:35;;;;;;;14.50;8.37;;;-5.40;99.90;;;;;;5088715;28;20206;-80
2022/12/18 04:37:02;;;;;;;17.60;8.93;;;-5.70;99.90;;;;;;5091154;28;20228;-80
2022/12/18 04:39:29;;;;;;;17.33;8.33;;;-6.00;99.90;;;;;;5089300;28;20202;-80
2022/12/18 04:41:56;;;;;;;19.20;8.47;;;-6.30;99.90;;;;;;5093528;28;20563;-80
2022/12/18 04:44:22;;;;;;;18.00;8.83;;;-6.40;99.90;;;;;;5095172;28;20202;-80
2022/12/18 04:46:49;;;;;;;17.77;8.63;;;-6.30;99.90;;;;;;5082854;28;20598;-80
2022/12/18 04:49:17;;;;;;;14.63;8.23;;;-6.40;99.90;;;;;;5092170;28;20236;-80
2022/12/18 04:51:44;;;;;;;18.03;8.30;;;-6.20;99.90;;;;;;5087191;28;20486;-80
2022/12/18 04:54:11;;;;;;;13.10;7.50;;;-6.30;99.90;;;;;;5094668;28;20350;-80
2022/12/18 04:56:38;;;;;;;13.20;7.07;;;-6.60;99.90;;;;;;5085218;28;20220;-80
2022/12/18 04:59:04;;;;;;;14.47;7.33;;;-6.50;99.90;;;;;;5095511;28;20205;-80
2022/12/18 05:01:34;;;;;;;15.67;8.20;;;-6.60;99.90;;;;;;5092443;28;20202;-80
2022/12/18 05:04:01;;;;;;;16.27;7.97;;;-6.70;99.90;;;;;;5096685;28;20197;-80
2022/12/18 05:06:29;;;;;;;18.27;9.70;;;-6.80;99.90;;;;;;5100597;28;20649;-80
2022/12/18 05:08:56;;;;;;;15.77;8.07;;;-6.70;99.90;;;;;;5087853;28;20575;-80
2022/12/18 05:11:23;;;;;;;17.00;7.67;;;-6.70;99.90;;;;;;5092234;28;20198;-80
2022/12/18 05:13:50;;;;;;;16.77;8.63;;;-7.00;99.90;;;;;;5090307;28;20214;-80
2022/12/18 05:16:17;;;;;;;15.33;8.37;;;-7.00;99.90;;;;;;5094205;28;20198;-80
2022/12/18 05:18:44;;;;;;;16.17;8.13;;;-7.00;99.90;;;;;;5094910;28;20704;-80
2022/12/18 05:21:10;;;;;;;13.27;7.90;;;-6.80;99.90;;;;;;5090101;28;20197;-80
2022/12/18 05:23:38;;;;;;;15.00;8.07;;;-6.90;99.90;;;;;;5085818;28;20206;-80
2022/12/18 05:26:07;;;;;;;16.00;7.87;;;-6.90;99.90;;;;;;5090610;28;20202;-80
2022/12/18 05:28:36;;;;;;;15.27;7.63;;;-6.80;99.90;;;;;;5083104;28;20213;-80
2022/12/18 05:31:04;;;;;;;18.03;8.60;;;-6.90;99.90;;;;;;5086983;28;20650;-80
2022/12/18 05:33:34;;;;;;;17.57;8.30;;;-6.90;99.90;;;;;;5084360;28;20215;-80
2022/12/18 05:36:03;;;;;;;16.30;8.33;;;-7.00;99.90;;;;;;5095557;28;20208;-80
2022/12/18 05:38:31;;;;;;;16.00;8.13;;;-7.00;99.90;;;;;;5092086;28;20222;-80
2022/12/18 05:41:00;;;;;;;16.60;7.57;;;-6.90;99.90;;;;;;5088192;28;20224;-80
2022/12/18 05:43:27;;;;;;;17.97;8.60;;;-7.00;99.90;;;;;;5087271;28;20230;-80
2022/12/18 05:45:55;;;;;;;18.03;8.60;;;-7.00;99.90;;;;;;5086241;28;20213;-80
2022/12/18 05:48:23;;;;;;;16.13;8.17;;;-7.00;99.90;;;;;;5087713;28;20257;-80
2022/12/18 05:50:50;;;;;;;15.37;8.07;;;-7.10;99.90;;;;;;5094456;28;20209;-81
2022/12/18 05:53:19;;;;;;;14.67;7.27;;;-7.10;99.90;;;;;;5087587;28;20222;-80
2022/12/18 05:55:47;;;;;;;10.37;6.43;;;-7.10;99.90;;;;;;5102944;28;20557;-80
2022/12/18 05:58:15;;;;;;;16.50;7.43;;;-6.70;99.90;;;;;;5089812;28;20229;-81
2022/12/18 06:00:45;;;;;;;15.40;8.13;;;-6.90;99.90;;;;;;5086538;28;20202;-80
2022/12/18 06:03:14;;;;;;;14.27;7.53;;;-7.10;99.90;;;;;;5085426;28;20821;-80
2022/12/18 06:05:43;;;;;;;13.10;7.20;;;-7.30;99.90;;;;;;5088253;28;20255;-80
2022/12/18 06:08:10;;;;;;;13.03;7.03;;;-7.30;99.90;;;;;;5088722;28;20590;-80
2022/12/18 06:10:37;;;;;;;15.60;7.27;;;-7.10;99.90;;;;;;5086233;28;20263;-80
2022/12/18 06:13:05;;;;;;;16.37;7.57;;;-7.20;99.90;;;;;;5084059;28;20205;-80
2022/12/18 06:15:33;;;;;;;13.47;7.50;;;-7.30;99.90;;;;;;5087441;28;20190;-80
2022/12/18 06:18:01;;;;;;;18.60;8.37;;;-7.20;99.90;;;;;;5087465;28;20221;-80
2022/12/18 06:20:31;;;;;;;17.13;8.17;;;-7.20;99.90;;;;;;5085231;28;20206;-80
2022/12/18 06:22:57;;;;;;;19.13;8.77;;;-7.20;99.90;;;;;;5088753;28;20194;-80
2022/12/18 06:25:24;;;;;;;20.10;9.57;;;-7.40;99.90;;;;;;5097172;28;20212;-80
2022/12/18 06:27:51;;;;;;;21.67;10.23;;;-7.40;99.90;;;;;;5086756;28;20217;-80
2022/12/18 06:30:18;;;;;;;20.77;10.47;;;-7.50;99.90;;;;;;5086647;28;20202;-80
2022/12/18 06:32:46;;;;;;;21.90;9.93;;;-7.60;99.90;;;;;;5083356;28;20225;-80
2022/12/18 06:35:13;;;;;;;23.50;9.97;;;-7.50;99.90;;;;;;5078146;28;20209;-80
2022/12/18 06:37:39;;;;;;;19.50;9.70;;;-7.70;99.90;;;;;;5083624;28;20236;-80
2022/12/18 06:40:08;;;;;;;20.27;9.93;;;-7.60;99.90;;;;;;5088440;28;20201;-80
2022/12/18 06:42:34;;;;;;;19.30;9.97;;;-7.60;99.90;;;;;;5091648;28;20565;-80
2022/12/18 06:45:01;;;;;;;17.80;8.67;;;-7.60;99.90;;;;;;5091340;28;20677;-80
2022/12/18 06:47:28;;;;;;;19.10;9.23;;;-7.60;99.90;;;;;;5084751;28;20245;-80
2022/12/18 06:49:56;;;;;;;19.00;9.07;;;-7.50;99.90;;;;;;5078664;28;20214;-80
2022/12/18 06:52:23;;;;;;;16.80;8.80;;;-7.50;99.90;;;;;;5091768;28;20201;-80
2022/12/18 06:54:50;;;;;;;18.40;9.13;;;-7.40;99.90;;;;;;5093705;28;20214;-80
2022/12/18 06:57:16;;;;;;;16.83;8.90;;;-7.10;99.90;;;;;;5092712;28;20297;-80
2022/12/18 06:59:43;;;;;;;17.23;7.70;;;-6.80;99.90;;;;;;5089829;28;20201;-80
2022/12/18 07:02:12;;;;;;;16.97;8.30;;;-6.10;99.90;;;;;;5090297;28;20642;-80
2022/12/18 07:04:39;;;;;;;16.70;7.73;;;-5.80;99.90;;;;;;5096785;28;20260;-80
2022/12/18 07:07:07;;;;;;;16.23;8.33;;;-5.90;99.90;;;;;;5090234;28;20588;-80
2022/12/18 07:09:34;;;;;;;13.97;6.83;;;-5.90;99.90;;;;;;5083558;28;20194;-80
2022/12/18 07:12:04;;;;;;;16.20;7.43;;;-5.50;99.90;;;;;;5093899;28;20207;-80
2022/12/18 07:14:31;;;;;;;17.10;7.60;;;-5.70;99.90;;;;;;5092389;28;20225;-80
2022/12/18 07:16:58;;;;;;;15.93;7.50;;;-5.80;99.90;;;;;;5089850;28;20396;-80
2022/12/18 07:19:25;;;;;;;14.57;6.87;;;-5.90;99.90;;;;;;5096968;28;20280;-80
2022/12/18 07:21:52;;;;;;;13.07;7.17;;;-6.10;99.90;;;;;;5096949;28;20194;-80
2022/12/18 07:24:20;;;;;;;15.27;7.27;;;-6.00;99.90;;;;;;5095581;28;20228;-80
2022/12/18 07:26:47;;;;;;;14.10;6.80;;;-5.80;99.90;;;;;;5092745;28;20222;-80
2022/12/18 07:29:13;;;;;;;12.57;6.40;;;-5.60;99.90;;;;;;5081230;28;20706;-80
2022/12/18 07:31:40;;;;;;;13.23;7.03;;;-5.70;99.90;;;;;;5086819;28;20262;-80
2022/12/18 07:34:11;;;;;;;16.27;7.87;;;-5.60;99.90;;;;;;5096793;28;20213;-82
2022/12/18 07:36:37;;;;;;;13.30;7.37;;;-5.40;99.90;;;;;;5096834;28;20194;-81
2022/12/18 07:39:04;;;;;;;13.43;6.13;;;-5.30;99.90;;;;;;5090737;28;20231;-81
2022/12/18 07:41:32;;;;;;;14.00;6.47;;;-5.50;99.90;;;;;;5095520;28;20205;-81
2022/12/18 07:43:59;;;;;;;15.23;7.63;;;-5.40;99.90;;;;;;5094791;28;20291;-81
2022/12/18 07:46:26;;;;;;;15.10;7.50;;;-5.00;99.90;;;;;;5100786;28;20207;-80
2022/12/18 07:48:53;;;;;;;16.13;8.20;;;-5.30;99.90;;;;;;5096061;28;20201;-80
2022/12/18 07:51:20;;;;;;;15.00;7.10;;;-5.10;99.90;;;;;;5090449;28;20214;-81
2022/12/18 07:53:47;;;;;;;17.83;8.03;;;-4.70;99.90;;;;;;5093229;28;20258;-80
2022/12/18 07:56:14;;;;;;;12.17;6.03;;;-4.80;99.90;;;;;;5097855;28;20205;-81
2022/12/18 07:58:44;;;;;;;13.00;6.53;;;-4.40;99.90;;;;;;5099159;28;20225;-81
2022/12/18 08:01:12;;;;;;;11.93;6.63;;;-4.20;99.90;;;;;;5097562;28;20223;-81
2022/12/18 08:03:41;;;;;;;16.43;5.63;;;-4.40;99.90;;;;;;5084245;28;20269;-81
2022/12/18 08:06:10;;;;;;;12.83;6.17;;;-3.70;99.90;;;;;;5103092;28;20672;-81
2022/12/18 08:08:37;;;;;;;10.63;6.17;;;-3.80;99.90;;;;;;5102887;28;20412;-81
2022/12/18 08:11:04;;;;;;;13.83;6.20;;;-3.70;99.90;;;;;;5103253;28;20214;-81
2022/12/18 08:13:31;;;;;;;13.77;5.97;;;-3.50;99.90;;;;;;5103579;28;20224;-82
2022/12/18 08:16:01;;;;;;;10.77;4.93;;;-3.30;99.90;;;;;;5091810;28;20208;-81
2022/12/18 08:18:28;;;;;;;9.10;5.40;;;-3.20;99.90;;;;;;5092209;28;20757;-81
2022/12/18 08:20:55;;;;;;;11.17;5.40;;;-3.30;99.90;;;;;;5101939;28;20193;-81
2022/12/18 08:23:23;;;;;;;13.43;5.80;;;-3.20;99.90;;;;;;5103674;28;20675;-81
2022/12/18 08:25:51;;;;;;;14.07;5.97;;;-3.00;99.90;;;;;;5104302;28;20214;-81
2022/12/18 08:28:17;;;;;;;14.57;6.90;;;-3.00;99.90;;;;;;5101910;28;20225;-82
2022/12/18 08:30:44;;;;;;;14.43;6.93;;;-2.80;99.90;;;;;;5099755;28;20288;-81
2022/12/18 08:33:13;;;;;;;11.23;5.13;;;-2.50;99.90;;;;;;5101806;28;20197;-82
2022/12/18 08:35:40;;;;;;;13.10;5.40;;;-2.50;99.90;;;;;;5099838;28;20212;-82
2022/12/18 08:38:06;;;;;;;11.47;5.87;;;-2.40;99.90;;;;;;5087177;28;20284;-81
2022/12/18 08:40:33;;;;;;;13.63;7.03;;;-2.50;99.90;;;;;;5102457;28;20266;-82
2022/12/18 08:45:44;;;;;;;10.50;5.47;;;-2.70;99.90;;;;;;5085621;28;20276;-81
2022/12/18 08:48:12;;;;;;;13.03;6.03;;;-2.30;99.90;;;;;;5101066;28;20210;-81
2022/12/18 08:50:39;;;;;;;13.77;6.00;;;-1.70;99.90;;;;;;5097967;28;20198;-81
2022/12/18 08:53:06;;;;;;;13.77;5.80;;;-1.30;99.90;;;;;;5101108;28;20285;-81
2022/12/18 08:55:32;;;;;;;12.93;5.17;;;-1.30;99.90;;;;;;5102700;28;20198;-81
2022/12/18 08:57:59;;;;;;;10.77;4.77;;;-1.10;99.90;;;;;;5103117;28;20233;-81
2022/12/18 09:00:26;;;;;;;11.57;4.23;;;-1.60;57.50;;;;;;5096074;28;20583;-81
2022/12/18 09:02:53;;;;;;;9.70;4.53;;;-1.60;27.30;;;;;;5097371;28;20202;-81
2022/12/18 09:05:21;;;;;;;8.70;5.20;;;-1.70;42.60;;;;;;5099472;28;20212;-81
2022/12/18 09:07:47;;;;;;;9.67;4.53;;;-1.70;96.30;;;;;;5098253;28;20228;-81
2022/12/18 09:10:14;;;;;;;8.37;4.00;;;-1.70;83.70;;;;;;5096691;28;20194;-81
2022/12/18 09:12:41;;;;;;;10.27;4.30;;;-1.60;55.80;;;;;;5106188;28;20197;-80
2022/12/18 09:15:08;;;;;;;9.00;3.87;;;-1.50;42.70;;;;;;5094760;28;20226;-81
2022/12/18 09:17:35;;;;;;;7.50;3.80;;;-1.50;91.40;;;;;;5098145;28;20221;-81
2022/12/18 09:20:02;;;;;;;9.00;4.73;;;-1.10;24.40;;;;;;5100821;28;20253;-81
2022/12/18 09:22:30;;;;;;;7.93;4.70;;;-1.50;1.00;;;;;;5097405;28;20198;-81
2022/12/18 09:24:57;;;;;;;8.83;4.00;;;-1.50;36.70;;;;;;5081414;28;20194;-82
2022/12/18 09:27:24;;;;;;;9.13;4.07;;;-1.40;91.90;;;;;;5086406;28;20977;-81
2022/12/18 09:29:50;;;;;;;10.27;4.60;;;-1.30;53.30;;;;;;5101321;28;20284;-81
2022/12/18 09:32:17;;;;;;;7.83;3.70;;;-1.60;76.60;;;;;;5092966;28;20206;-81
2022/12/18 09:34:44;;;;;;;6.07;3.80;;;-1.00;99.90;;;;;;5081881;28;20234;-81
2022/12/18 09:37:11;;;;;;;12.87;3.97;;;-0.60;1.00;;;;;;5081340;28;20312;-81
2022/12/18 09:39:39;;;;;;;7.53;3.63;;;-0.60;1.00;;;;;;5094593;28;20646;-81
2022/12/18 09:42:07;;;;;;;9.30;4.40;;;-0.90;1.00;;;;;;5095066;28;20202;-81
2022/12/18 09:44:36;;;;;;;11.70;5.50;;;-1.60;1.00;;;;;;5093060;28;20594;-81
2022/12/18 09:47:13;;;;;;;11.37;5.40;;;-1.80;99.90;;;;;;5103597;28;20319;-82
2022/12/18 09:49:44;;;;;;;9.23;4.90;;;-2.00;99.90;;;;;;5091411;28;20212;-80
2022/12/18 09:52:16;;;;;;;10.90;5.37;;;-2.20;99.90;;;;;;5087331;28;20218;-81
2022/12/18 09:54:48;;;;;;;11.00;5.27;;;-2.40;99.90;;;;;;5094561;28;20652;-81
2022/12/18 09:57:18;;;;;;;11.73;5.80;;;-2.20;99.90;;;;;;5087449;28;20225;-81
2022/12/18 09:59:50;;;;;;;24.77;6.20;;;-2.10;99.90;;;;;;5081926;28;20213;-81
2022/12/18 10:02:20;;;;;;;18.60;6.90;;;-1.80;99.90;;;;;;5086177;28;20206;-81
2022/12/18 10:04:56;;;;;;;15.70;6.63;;;-2.20;99.90;;;;;;5090469;28;20198;-82
2022/12/18 10:07:29;;;;;;;12.37;6.47;;;-2.30;99.90;;;;;;5079989;28;20229;-81
2022/12/18 10:10:04;;;;;;;13.67;7.10;;;-2.10;99.90;;;;;;5096657;28;20208;-82
2022/12/18 10:12:35;;;;;;;16.50;7.23;;;-1.90;99.90;;;;;;5079232;28;20692;-82
2022/12/18 10:15:07;;;;;;;15.73;7.47;;;-1.60;99.90;;;;;;5093379;28;20653;-82
2022/12/18 10:17:40;;;;;;;12.60;6.23;;;-1.50;99.90;;;;;;5088207;28;20248;-82
2022/12/18 10:20:14;;;;;;;11.47;5.47;;;-1.10;99.90;;;;;;5107580;28;20207;-82
2022/12/18 10:22:49;;;;;;;10.17;4.00;;;-0.30;99.90;;;;;;5091886;28;20682;-82
2022/12/18 10:25:23;;;;;;;6.60;3.63;;;0.00;99.90;;;;;;5087260;28;20211;-82
2022/12/18 10:27:55;;;;;;;5.77;3.50;;;-0.20;99.90;;;;;;5101605;28;20312;-82
2022/12/18 10:30:23;;;;;;;10.97;4.30;;;0.10;1.00;;;;;;5074523;28;20222;-82
2022/12/18 10:32:50;;;;;;;6.00;3.10;;;0.20;1.00;;;;;;5078504;28;20224;-82
2022/12/18 10:35:21;;;;;;;5.17;2.40;;;0.30;1.00;;;;;;5077254;28;20762;-82
2022/12/18 10:38:16;;;;;;;3.50;1.80;;;0.40;99.90;;;;;;5081469;28;20612;-81
2022/12/18 10:40:52;;;;;;;5.13;2.27;;;0.50;1.00;;;;;;5090676;28;20205;-82
2022/12/18 10:43:23;;;;;;;5.80;2.50;;;0.70;1.00;;;;;;5084917;28;20210;-81
2022/12/18 10:46:01;;;;;;;4.83;2.50;;;0.70;1.00;;;;;;5090447;28;20210;-81
2022/12/18 10:48:29;;;;;;;7.10;3.80;;;0.70;1.00;;;;;;5080536;28;20232;-81
2022/12/18 10:50:57;;;;;;;7.10;4.40;;;0.10;1.00;;;;;;5070934;28;20202;-81
2022/12/18 10:53:26;;;;;;;8.53;4.10;;;-0.10;99.90;;;;;;5076963;28;20245;-81
2022/12/18 10:56:04;;;;;;;7.53;4.10;;;-0.10;99.90;;;;;;5073616;28;20209;-81
2022/12/18 10:58:33;;;;;;;4.40;2.67;;;0.10;99.90;;;;;;5081049;28;20229;-81
2022/12/18 11:01:10;;;;;;;6.03;2.83;;;0.50;1.00;;;;;;5090508;28;20197;-80
2022/12/18 11:03:38;;;;;;;6.00;3.07;;;0.60;1.00;;;;;;5085704;28;20201;-81
2022/12/18 11:06:09;;;;;;;6.00;3.30;;;0.40;1.00;;;;;;5083364;28;20204;-81
2022/12/18 11:08:36;;;;;;;4.53;2.73;;;0.40;1.00;;;;;;5083819;28;20221;-81
2022/12/18 11:11:08;;;;;;;4.73;2.60;;;0.50;1.00;;;;;;5081777;28;20213;-80
2022/12/18 11:13:35;;;;;;;4.67;2.37;;;0.80;1.00;;;;;;5087902;28;20202;-81
2022/12/18 11:16:02;;;;;;;4.83;2.60;;;0.90;99.90;;;;;;5086491;28;20224;-80
2022/12/18 11:18:31;;;;;;;4.53;2.70;;;0.70;99.90;;;;;;5080108;28;20508;-81
2022/12/18 11:21:00;;;;;;;5.00;2.70;;;0.60;1.00;;;;;;5082977;28;20206;-81
2022/12/18 11:23:27;;;;;;;6.20;2.70;;;0.60;1.00;;;;;;5075657;28;20205;-81
2022/12/18 11:26:00;;;;;;;4.27;2.70;;;0.70;1.00;;;;;;5088932;28;20209;-81
2022/12/18 11:28:37;;;;;;;8.33;3.83;;;1.00;1.00;;;;;;5088823;28;20607;-81
2022/12/18 11:31:20;;;;;;;5.63;3.47;;;1.30;1.00;;;;;;5087675;28;20283;-80
2022/12/18 11:33:53;;;;;;;6.97;3.20;;;1.30;99.90;;;;;;5083319;28;20202;-81
2022/12/18 11:36:22;;;;;;;7.40;2.97;;;1.20;1.00;;;;;;5082220;28;20300;-80
2022/12/18 11:38:52;;;;;;;5.73;2.63;;;1.10;1.00;;;;;;5081249;28;20222;-81
2022/12/18 11:42:08;;;;;;;4.03;2.40;;;1.20;99.90;;;;;;5089565;28;20212;-81
2022/12/18 11:44:23;;;;;;;4.83;2.80;;;1.30;1.00;;;;;;5083181;28;20751;-81
2022/12/18 11:46:56;;;;;;;6.10;3.10;;;1.40;1.00;;;;;;5082543;28;20571;-81
2022/12/18 11:49:27;;;;;;;4.73;2.90;;;1.20;99.90;;;;;;5092112;28;20244;-81
2022/12/18 11:52:01;;;;;;;3.60;2.30;;;1.30;1.00;;;;;;5084039;28;20201;-81
2022/12/18 11:54:28;;;;;;;4.27;2.47;;;1.50;1.00;;;;;;5077188;28;20641;-80
2022/12/18 11:56:59;;;;;;;3.40;2.70;;;1.50;99.90;;;;;;5079324;28;20702;-80
2022/12/18 11:59:36;;;;;;;7.57;2.93;;;1.50;1.00;;;;;;5092901;28;20198;-80
2022/12/18 12:02:21;;;;;;;7.23;2.80;;;1.60;1.00;;;;;;5082897;28;20218;-80
2022/12/18 12:05:03;;;;;;;4.87;2.80;;;1.50;1.00;;;;;;5088382;28;20642;-80
2022/12/18 12:07:39;;;;;;;5.40;3.20;;;1.60;1.00;;;;;;5075443;28;20226;-80
2022/12/18 12:10:16;;;;;;;4.97;3.07;;;1.00;1.00;;;;;;5073166;28;20229;-80
2022/12/18 12:12:56;;;;;;;7.50;3.57;;;1.20;99.90;;;;;;5090638;28;20198;-80
2022/12/18 12:15:41;;;;;;;6.00;3.20;;;1.00;99.90;;;;;;5098225;28;20220;-80
2022/12/18 12:18:21;;;;;;;6.10;3.00;;;0.80;1.00;;;;;;5087162;28;20226;-80
2022/12/18 12:20:59;;;;;;;3.83;2.90;;;0.80;1.00;;;;;;5090213;28;20210;-81
2022/12/18 12:23:39;;;;;;;6.73;3.20;;;0.50;1.00;;;;;;5092457;28;20684;-81
2022/12/18 12:26:10;;;;;;;5.20;2.80;;;0.50;48.60;;;;;;5092688;28;20726;-81
2022/12/18 12:28:53;;;;;;;3.70;2.70;;;0.60;1.00;;;;;;5080774;28;20217;-80
2022/12/18 12:31:34;;;;;;;7.17;3.20;;;0.50;27.30;;;;;;5087351;28;20240;-81
2022/12/18 12:34:09;;;;;;;6.23;3.33;;;0.60;28.20;;;;;;5083697;28;20202;-81
2022/12/18 12:36:45;;;;;;;6.00;2.93;;;0.50;1.00;;;;;;5078665;28;20232;-80
2022/12/18 12:39:18;;;;;;;5.53;3.07;;;0.60;1.00;;;;;;5095560;28;20205;-80
2022/12/18 12:44:36;;;;;;;9.23;5.33;;;0.50;99.90;;;;;;5087039;28;20486;-80
2022/12/18 12:47:14;;;;;;;11.70;6.43;;;0.10;99.90;;;;;;5092149;28;20221;-80
2022/12/18 12:49:47;;;;;;;15.57;6.67;;;-0.20;1.00;;;;;;5081178;28;20355;-80
2022/12/18 12:52:21;;;;;;;16.60;7.60;;;-0.30;99.90;;;;;;5090891;28;20247;-80
2022/12/18 12:54:49;;;;;;;16.07;7.50;;;-0.60;99.90;;;;;;5089277;28;20562;-80
2022/12/18 12:57:23;;;;;;;16.57;8.50;;;-0.60;99.90;;;;;;5085980;28;20218;-80
2022/12/18 12:59:59;;;;;;;16.80;8.57;;;-0.70;99.90;;;;;;5089308;28;20235;-80